Overview Statistics Trail Chart Weather Telemetry Raw packets
 

This is the latest recevied weather packets stored in our database for station/object K7MT-WX. If no packets are shown the sender has not sent any weather packets the latest 10 day(s).

<< 33 34 35 36 37 38 39 >>
Time Temp. Humidity Pressure Rain* Wind** Luminosity Snow
1787861609 27.22° C 43% 1015.3 hPa 0 mm - - -
1787860709 26.67° C 45% 1015.6 hPa 0 mm - - -
1787859809 25.56° C 46% 1015.9 hPa 0 mm - - -
1787858909 24.44° C 48% 1016.1 hPa 0 mm - - -
1787858009 23.89° C 49% 1016.2 hPa 0 mm - - -
1787857109 23.89° C 49% 1016.6 hPa 0 mm - - -
1787856209 23.89° C 48% 1016.8 hPa 0 mm - - -
1787855309 22.22° C 53% 1017.3 hPa 0 mm - - -
1787854409 20.56° C 58% 1017.8 hPa 0 mm - - -
1787853509 19.44° C 63% 1018.3 hPa 0 mm - - -
1787852609 18.33° C 72% 1018.6 hPa 0 mm - - -
1787851709 17.78° C 70% 1018.6 hPa 0 mm - - -
1787850809 17.78° C 69% 1019.7 hPa 0 mm - - -
1787849909 17.22° C 72% 1020.1 hPa 0 mm - - -
1787849009 17.22° C 72% 1019.4 hPa 0 mm - - -
1787848109 16.67° C 77% 1019.2 hPa 0 mm - - -
1787847209 17.22° C 76% 1019.3 hPa 0 mm - - -
1787846309 17.78° C 70% 1018.6 hPa 0 mm - - -
1787845409 17.22° C 68% 1018.5 hPa 0 mm - - -
1787844509 17.22° C 70% 1018.8 hPa 0 mm - - -
1787843609 16.11° C 75% 1018.8 hPa 0 mm - - -
1787842709 15.56° C 78% 1019.1 hPa 0 mm - - -
1787841816 14.44° C 81% 1019.2 hPa 0 mm - - -
1787840909 13.89° C 81% 1019.2 hPa 0 mm - - -
1787840009 12.78° C 84% 1019.2 hPa 0 mm - - -

* Rain latest hour (hover to see other rain measurements)
** Current wind speed in m/s (hover to see current wind gust speed)